Time;durP1;ratioP1;P1;durP2;ratioP2;P2;SDS_P1;SDS_P2;PMS_P1;PMS_P2;Temp;Humidity;BMP_temperature;BMP_pressure;BME280_temperature;BME280_humidity;BME280_pressure;Samples;Min_cycle;Max_cycle;Signal;HPM_P1;HPM_P2
2023/08/05 00:07:01;;;;;;;5.10;4.60;;;;;;;28.03;49.70;101197.03;21090898;28;20089;-83
2023/08/05 00:17:02;;;;;;;4.88;4.35;;;;;;;28.09;49.53;101260.47;21095530;28;20455;-83
2023/08/05 00:27:04;;;;;;;4.90;4.18;;;;;;;28.04;49.49;101242.88;21093124;28;20556;-81
2023/08/05 00:37:06;;;;;;;5.63;4.72;;;;;;;28.05;49.77;101250.19;21103577;28;20040;-79
2023/08/05 00:47:07;;;;;;;5.00;4.47;;;;;;;28.02;49.86;101262.06;21108856;28;20044;-84
2023/08/05 00:57:14;;;;;;;4.78;4.28;;;;;;;28.09;49.55;101277.34;21140129;28;20053;-83
2023/08/05 01:07:19;;;;;;;4.85;4.30;;;;;;;28.09;49.69;101268.09;21138218;28;20043;-86
2023/08/05 01:17:20;;;;;;;5.40;4.88;;;;;;;27.98;49.59;101250.63;21113054;28;20080;-77
2023/08/05 01:27:23;;;;;;;4.95;4.43;;;;;;;28.01;49.95;101282.94;21173244;28;20077;-81
2023/08/05 01:37:25;;;;;;;5.50;4.78;;;;;;;28.03;49.80;101297.50;21142196;28;20044;-81
2023/08/05 01:47:26;;;;;;;5.38;4.57;;;;;;;27.95;49.59;101292.63;21122812;28;20066;-87
2023/08/05 01:57:28;;;;;;;5.10;4.40;;;;;;;28.03;49.50;101306.75;21097649;28;20106;-86
2023/08/05 02:07:32;;;;;;;5.25;4.75;;;;;;;28.02;49.73;101299.47;21115074;28;20040;-87
2023/08/05 02:17:34;;;;;;;4.93;4.43;;;;;;;28.04;49.48;101262.56;21093840;28;20498;-85
2023/08/05 02:27:35;;;;;;;5.53;4.57;;;;;;;28.03;49.66;101270.19;21107858;28;20052;-85
2023/08/05 02:37:37;;;;;;;4.97;4.35;;;;;;;27.95;49.58;101289.81;21096605;28;20044;-81
2023/08/05 02:47:38;;;;;;;4.88;4.38;;;;;;;28.05;49.59;101286.75;21099534;28;20549;-84
2023/08/05 02:57:42;;;;;;;5.18;4.57;;;;;;;28.04;49.50;101299.13;21098333;28;20043;-81
2023/08/05 03:07:44;;;;;;;5.00;4.47;;;;;;;28.07;49.69;101304.13;21060357;28;20387;-81
2023/08/05 03:17:45;;;;;;;5.53;4.60;;;;;;;28.04;49.54;101302.81;21091754;28;20070;-81
2023/08/05 03:27:50;;;;;;;5.03;4.35;;;;;;;27.84;49.57;101276.03;21106307;28;20047;-82
2023/08/05 03:37:51;;;;;;;5.07;4.57;;;;;;;28.06;49.51;101308.09;21106496;28;20070;-79
2023/08/05 03:47:55;;;;;;;5.10;4.55;;;;;;;28.02;49.79;101301.47;21063788;28;20089;-83
2023/08/05 03:57:57;;;;;;;4.88;4.32;;;;;;;28.06;49.64;101325.81;21095258;28;20044;-83
2023/08/05 04:07:58;;;;;;;5.72;4.63;;;;;;;28.07;49.67;101321.00;21142511;28;20130;-84
2023/08/05 04:18:00;;;;;;;5.20;4.70;;;;;;;28.10;49.47;101332.47;21137528;28;20445;-86
2023/08/05 04:28:02;;;;;;;6.05;5.10;;;;;;;28.04;49.73;101316.03;21100660;28;20036;-83
2023/08/05 04:38:03;;;;;;;4.85;4.28;;;;;;;28.03;49.64;101320.00;21107277;28;20066;-83
2023/08/05 04:48:08;;;;;;;6.20;5.03;;;;;;;27.92;49.88;101284.84;21104012;28;20096;-86
2023/08/05 04:58:11;;;;;;;6.18;4.78;;;;;;;27.92;49.56;101262.34;21098651;28;20047;-85
2023/08/05 05:08:12;;;;;;;5.15;4.60;;;;;;;27.94;49.67;101265.66;21097567;28;20040;-83
2023/08/05 05:18:15;;;;;;;4.95;4.45;;;;;;;28.01;49.75;101269.69;21099783;28;20054;-85
2023/08/05 05:28:16;;;;;;;5.20;4.13;;;;;;;27.99;49.80;101273.97;21100508;28;20384;-86
2023/08/05 05:38:20;;;;;;;4.78;4.20;;;;;;;28.06;49.72;101274.34;21097325;28;20117;-82
2023/08/05 05:48:21;;;;;;;5.68;4.78;;;;;;;28.10;49.46;101269.75;21092725;28;20044;-82
2023/08/05 05:58:23;;;;;;;4.85;4.00;;;;;;;28.01;50.03;101271.69;21077961;28;20036;-85
2023/08/05 06:08:24;;;;;;;5.15;4.15;;;;;;;28.05;49.80;101278.31;21096949;28;20036;-86
2023/08/05 06:18:26;;;;;;;5.25;4.75;;;;;;;27.95;49.68;101251.28;21099391;28;20047;-85
2023/08/05 06:28:27;;;;;;;4.80;4.15;;;;;;;27.99;49.81;101254.28;21107128;28;20036;-85
2023/08/05 06:38:31;;;;;;;5.03;4.50;;;;;;;27.89;49.78;101230.06;21130670;28;20036;-84
2023/08/05 06:48:33;;;;;;;4.88;4.38;;;;;;;27.90;49.58;101228.06;21157033;28;20083;-84
2023/08/05 06:58:34;;;;;;;5.22;4.68;;;;;;;27.97;49.56;101239.72;21094661;28;20024;-83
2023/08/05 07:08:39;;;;;;;5.70;4.65;;;;;;;27.65;49.38;101196.66;21089012;28;20035;-87
2023/08/05 07:18:40;;;;;;;5.47;4.50;;;;;;;27.88;49.83;101244.47;21089267;28;20024;-85
2023/08/05 07:28:42;;;;;;;5.15;4.60;;;;;;;28.03;49.58;101270.19;21100972;28;20066;-81
2023/08/05 07:38:47;;;;;;;5.10;4.60;;;;;;;27.99;49.76;101257.09;21097092;28;20036;-87
2023/08/05 07:48:52;;;;;;;4.57;4.15;;;;;;;28.03;49.71;101269.34;21073213;28;20047;-85
2023/08/05 07:58:53;;;;;;;5.32;4.80;;;;;;;27.84;49.77;101233.00;21093867;28;20040;-88
2023/08/05 08:08:55;;;;;;;5.28;4.68;;;;;;;27.97;49.95;101248.16;21093160;28;20070;-84
2023/08/05 08:18:59;;;;;;;5.38;4.57;;;;;;;27.98;49.75;101241.38;21096340;28;20031;-86
2023/08/05 08:29:00;;;;;;;5.53;4.57;;;;;;;27.94;49.85;101240.34;21146649;28;20091;-83
2023/08/05 08:39:02;;;;;;;5.07;4.57;;;;;;;27.99;49.77;101262.72;21178979;28;20050;-80
2023/08/05 08:49:04;;;;;;;4.93;4.43;;;;;;;27.86;49.54;101237.19;21147087;28;20093;-84
2023/08/05 08:59:09;;;;;;;5.32;4.47;;;;;;;27.88;49.98;101244.47;21153645;28;20093;-83
2023/08/05 09:09:11;;;;;;;5.03;4.53;;;;;;;27.84;49.79;101239.47;21106347;28;20058;-88
2023/08/05 09:19:24;;;;;;;4.95;4.00;;;;;;;27.91;49.97;101255.06;21107018;28;20040;-86
2023/08/05 09:29:28;;;;;;;5.32;4.35;;;;;;;27.92;50.01;101254.75;21084722;28;20040;-87
2023/08/05 09:39:50;;;;;;;6.40;5.03;;;;;;;27.85;50.23;101260.81;21084141;28;20101;-85
2023/08/05 09:49:53;;;;;;;5.50;4.88;;;;;;;27.88;50.08;101269.75;21110612;28;20036;-83
2023/08/05 09:59:58;;;;;;;5.05;4.40;;;;;;;27.91;50.04;101274.75;21104917;28;20021;-82
2023/08/05 10:10:00;;;;;;;5.43;4.80;;;;;;;27.93;49.90;101287.34;21102948;28;20537;-83
2023/08/05 10:20:01;;;;;;;5.32;4.80;;;;;;;27.78;50.14;101280.13;21106049;28;20475;-86
2023/08/05 10:30:10;;;;;;;5.22;4.55;;;;;;;27.91;50.07;101288.81;21105395;28;20054;-82
2023/08/05 10:40:11;;;;;;;4.97;4.47;;;;;;;27.93;49.85;101292.97;21115041;28;20101;-84
2023/08/05 10:50:16;;;;;;;5.57;4.80;;;;;;;27.97;50.10;101295.97;21123947;28;20040;-85
2023/08/05 11:00:20;;;;;;;6.78;4.95;;;;;;;27.93;49.85;101290.16;21108082;28;20037;-87
2023/08/05 11:10:32;;;;;;;5.13;4.60;;;;;;;27.91;50.22;101288.81;21123588;28;20040;-81
2023/08/05 11:20:39;;;;;;;4.75;4.20;;;;;;;27.75;49.86;101269.50;21147891;28;20052;-82
2023/08/05 11:30:41;;;;;;;5.38;4.60;;;;;;;27.90;50.02;101309.63;21118720;28;20028;-84
2023/08/05 11:40:45;;;;;;;4.95;4.35;;;;;;;27.79;49.92;101290.22;21109506;28;20032;-85
2023/08/05 11:51:17;;;;;;;4.80;4.32;;;;;;;27.82;50.14;101309.28;21159596;28;20059;-84
2023/08/05 12:01:40;;;;;;;5.22;4.50;;;;;;;27.68;49.92;101280.34;21140061;28;20110;-85
2023/08/05 12:11:45;;;;;;;4.85;4.30;;;;;;;27.57;50.15;101262.06;21167217;28;20029;-81
2023/08/05 12:21:47;;;;;;;5.10;4.40;;;;;;;27.99;49.76;101324.59;21120632;28;20024;-86
2023/08/05 12:31:56;;;;;;;4.95;4.13;;;;;;;27.91;49.99;101316.94;21113379;28;20043;-85
2023/08/05 12:42:09;;;;;;;5.07;4.40;;;;;;;27.91;49.96;101326.22;21110301;28;20040;-86
2023/08/05 12:52:11;;;;;;;4.72;4.05;;;;;;;27.74;49.99;101301.59;21101676;28;20040;-86
2023/08/05 13:02:22;;;;;;;4.13;3.72;;;;;;;27.84;50.13;101335.09;21103396;28;20070;-86
2023/08/05 13:12:26;;;;;;;4.25;3.85;;;;;;;27.94;49.82;101338.78;21125123;28;20032;-86
2023/08/05 13:22:28;;;;;;;5.68;4.72;;;;;;;27.92;50.07;101360.78;21131147;28;20048;-85
2023/08/05 13:32:29;;;;;;;4.95;4.20;;;;;;;27.91;49.87;101354.34;21100637;28;20052;-85
2023/08/05 13:42:31;;;;;;;5.32;4.50;;;;;;;27.94;49.94;101367.75;21125746;28;20058;-87
2023/08/05 13:52:33;;;;;;;4.55;3.97;;;;;;;27.95;49.71;101391.06;21116424;28;20078;-87
2023/08/05 14:02:34;;;;;;;4.68;4.22;;;;;;;27.96;49.92;101387.13;21114216;28;20040;-89
2023/08/05 14:12:36;;;;;;;4.70;4.20;;;;;;;27.99;49.73;101389.28;21113895;28;20113;-87
2023/08/05 14:22:38;;;;;;;4.78;4.20;;;;;;;27.97;49.78;101385.97;21112225;28;20516;-87
2023/08/05 14:32:39;;;;;;;5.07;4.57;;;;;;;27.92;50.08;101397.34;21103769;28;20078;-85
2023/08/05 14:42:41;;;;;;;4.50;4.00;;;;;;;28.00;49.73;101405.03;21105009;28;20053;-85
2023/08/05 14:52:46;;;;;;;5.30;4.68;;;;;;;27.96;49.56;101387.97;21102862;28;20449;-85
2023/08/05 15:02:47;;;;;;;4.40;4.00;;;;;;;28.05;49.69;101407.72;21100687;28;20036;-86
2023/08/05 15:12:49;;;;;;;4.45;4.05;;;;;;;28.04;49.74;101397.59;21110576;28;20364;-82
2023/08/05 15:22:53;;;;;;;5.18;4.68;;;;;;;28.08;49.67;101395.81;21114223;28;20062;-84
2023/08/05 15:32:54;;;;;;;5.65;4.78;;;;;;;27.95;49.40;101361.00;21106379;28;20036;-84
2023/08/05 15:42:56;;;;;;;5.18;4.68;;;;;;;28.05;49.44;101368.34;21103760;28;20071;-83
2023/08/05 15:53:07;;;;;;;4.78;4.30;;;;;;;28.12;49.66;101380.78;21112714;28;20053;-83
2023/08/05 16:03:09;;;;;;;5.32;4.50;;;;;;;28.12;49.65;101375.16;21119525;28;20028;-88
2023/08/05 16:13:11;;;;;;;5.32;4.60;;;;;;;27.97;49.61;101344.63;21110536;28;20036;-86
2023/08/05 16:23:12;;;;;;;5.57;4.70;;;;;;;28.09;49.68;101358.13;21125366;28;20472;-86
2023/08/05 16:33:13;;;;;;;6.00;4.70;;;;;;;28.11;49.44;101361.44;21132737;28;20048;-84
2023/08/05 16:43:15;;;;;;;5.53;4.93;;;;;;;28.09;49.61;101361.75;21146244;28;20040;-82
2023/08/05 16:53:16;;;;;;;4.88;4.38;;;;;;;28.17;49.25;101362.13;21103275;28;20052;-82
2023/08/05 17:03:18;;;;;;;6.15;5.43;;;;;;;28.16;49.35;101364.09;21112574;28;20032;-84
2023/08/05 17:13:20;;;;;;;5.53;4.90;;;;;;;28.17;49.49;101357.31;21125199;28;20457;-85
2023/08/05 17:23:24;;;;;;;6.03;5.43;;;;;;;28.23;49.26;101352.41;21150238;28;20067;-82
2023/08/05 17:33:25;;;;;;;6.10;5.45;;;;;;;28.27;49.48;101351.44;21145379;28;20049;-82
2023/08/05 17:43:33;;;;;;;6.28;5.50;;;;;;;28.28;49.28;101344.66;21081377;28;20093;-79
2023/08/05 17:53:34;;;;;;;6.20;5.60;;;;;;;28.26;49.33;101344.13;21045775;28;20094;-79
2023/08/05 18:03:36;;;;;;;5.57;5.00;;;;;;;28.12;49.32;101332.97;21045440;28;20083;-85
2023/08/05 18:13:37;;;;;;;6.47;5.78;;;;;;;28.29;49.50;101346.31;21009969;28;20451;-83
2023/08/05 18:23:39;;;;;;;6.15;5.22;;;;;;;28.28;49.71;101335.41;21061050;28;20084;-82
2023/08/05 18:33:40;;;;;;;8.02;4.97;;;;;;;28.10;49.52;101309.13;21041840;28;20052;-82
2023/08/05 18:43:41;;;;;;;6.47;5.63;;;;;;;28.31;49.66;101343.16;21063752;28;20062;-82
2023/08/05 18:53:43;;;;;;;11.35;5.82;;;;;;;28.24;49.88;101338.00;21105905;28;20040;-84
2023/08/05 19:03:44;;;;;;;14.82;6.90;;;;;;;28.20;49.80;101314.47;21125890;28;20019;-79
2023/08/05 19:13:46;;;;;;;13.13;7.10;;;;;;;28.23;49.51;101321.47;21078725;28;20040;-84
2023/08/05 19:23:47;;;;;;;18.77;7.32;;;;;;;27.98;49.78;101261.06;21077585;28;20032;-82
2023/08/05 19:33:50;;;;;;;18.63;7.05;;;;;;;28.27;49.83;101303.63;21094203;28;20077;-83
2023/08/05 19:43:51;;;;;;;15.55;8.18;;;;;;;28.26;49.84;101285.03;21099170;28;20044;-81
2023/08/05 19:53:56;;;;;;;16.80;8.30;;;;;;;28.19;50.03;101273.44;21080741;28;20036;-83
2023/08/05 20:03:57;;;;;;;19.95;8.63;;;;;;;28.38;49.86;101297.72;21090099;28;20382;-82
2023/08/05 20:13:58;;;;;;;20.10;8.98;;;;;;;28.18;50.04;101277.41;21082845;28;20043;-81
2023/08/05 20:24:00;;;;;;;17.02;8.75;;;;;;;28.33;49.78;101296.69;21058168;28;20098;-79
2023/08/05 20:34:04;;;;;;;22.38;8.60;;;;;;;28.42;49.97;101304.38;21077392;28;20052;-81
2023/08/05 20:44:05;;;;;;;27.30;9.82;;;;;;;28.45;50.16;101300.91;21077085;28;20048;-80
2023/08/05 20:54:08;;;;;;;27.23;9.57;;;;;;;28.30;50.08;101273.97;21058997;28;20105;-84
2023/08/05 21:04:09;;;;;;;36.15;10.18;;;;;;;28.29;50.02;101275.97;21057414;28;20105;-83
2023/08/05 21:14:11;;;;;;;37.97;10.75;;;;;;;28.47;50.00;101315.50;21025561;28;20048;-82
2023/08/05 21:24:12;;;;;;;19.67;9.30;;;;;;;28.45;50.13;101298.06;21081185;28;20040;-82
2023/08/05 21:34:16;;;;;;;19.65;9.45;;;;;;;28.33;50.11;101273.34;21096701;28;20973;-86
2023/08/05 21:44:18;;;;;;;20.70;9.05;;;;;;;28.42;50.00;101284.66;21082935;28;20044;-84
2023/08/05 21:54:19;;;;;;;25.33;9.90;;;;;;;28.44;49.96;101291.63;21043972;28;20036;-84
2023/08/05 22:04:20;;;;;;;26.33;10.00;;;;;;;28.49;50.42;101293.47;21090262;28;20028;-80
2023/08/05 22:14:22;;;;;;;18.92;9.00;;;;;;;28.45;50.23;101286.81;21029485;28;20045;-81
2023/08/05 22:24:23;;;;;;;21.70;10.05;;;;;;;28.53;50.21;101297.28;21019885;28;20040;-82
2023/08/05 22:34:25;;;;;;;28.35;9.23;;;;;;;28.18;49.73;101297.09;21058312;28;20032;-83
2023/08/05 22:44:26;;;;;;;32.03;9.75;;;;;;;27.64;49.25;101296.19;21112683;28;20479;-83
2023/08/05 22:54:28;;;;;;;19.60;9.98;;;;;;;27.30;49.11;101297.53;21077892;28;20083;-83
2023/08/05 23:04:32;;;;;;;23.80;9.20;;;;;;;26.86;51.30;101287.81;21027512;28;20032;-82
2023/08/05 23:14:34;;;;;;;18.85;9.95;;;;;;;27.17;54.45;101306.84;21014523;28;20032;-84
2023/08/05 23:24:35;;;;;;;18.50;9.90;;;;;;;27.53;53.74;101331.31;21014822;28;20040;-79
2023/08/05 23:34:36;;;;;;;15.23;9.23;;;;;;;27.75;52.98;101341.78;21072660;28;20109;-85
2023/08/05 23:44:38;;;;;;;19.67;9.00;;;;;;;27.82;52.55;101340.22;21059766;28;20047;-73
2023/08/05 23:54:39;;;;;;;14.88;8.68;;;;;;;27.91;51.98;101331.00;21038829;28;20056;-74
